Platteville, Iowa
Current Conditions -  °F | °C
As of 8:55 AM on Friday 19 Dec 2014 (Local Time) from KCSQ Reporting Station
Haze Haze  
Wind Chill: 22°   Ceiling: 500
Heat Index: 28°   Visibility: 5mi
Dew Point: 28°   Wind: 6mph
Humidity: 100%   Direction: 170°S
Pressure: 30.26"   Gusts: NA
Location:  40.6485°N, 94.5286°W
Report Text: KCSQ 191455Z AUTO 17005KT 5SM BR BKN005 BKN023 OVC034 M02/M02 A3026 RMK AO2
Loading
Personal Weather Stations






























Interactive Weather Map New forecast layout! Learn more

10-Day Weather Forecast

Advertisements
Track Severe Weather on mobile